Time;durP1;ratioP1;P1;durP2;ratioP2;P2;SDS_P1;SDS_P2;PMS_P1;PMS_P2;Temp;Humidity;BMP_temperature;BMP_pressure;BME280_temperature;BME280_humidity;BME280_pressure;Samples;Min_cycle;Max_cycle;Signal;HPM_P1;HPM_P2
2023/05/11 00:00:37;;;;;;;8.20;5.32;;;;;;;9.16;84.71;94812.22;5132241;27;20240;-74
2023/05/11 00:03:04;;;;;;;3.47;2.38;;;;;;;9.13;84.71;94812.06;5132474;27;20201;-74
2023/05/11 00:05:31;;;;;;;6.50;4.40;;;;;;;9.11;84.80;94815.09;5125698;27;20208;-73
2023/05/11 00:07:58;;;;;;;4.78;3.58;;;;;;;9.07;85.01;94813.31;5138960;27;20257;-74
2023/05/11 00:10:28;;;;;;;3.58;2.92;;;;;;;9.02;84.43;94813.47;5132224;27;20258;-75
2023/05/11 00:12:54;;;;;;;4.75;3.95;;;;;;;9.00;84.76;94830.00;5131787;27;20653;-73
2023/05/11 00:15:21;;;;;;;7.13;4.60;;;;;;;8.95;84.99;94811.22;5132004;27;20269;-74
2023/05/11 00:17:48;;;;;;;5.82;3.47;;;;;;;8.98;84.71;94818.69;5131586;27;20707;-73
2023/05/11 00:20:15;;;;;;;5.13;3.20;;;;;;;8.98;84.57;94826.81;5131504;27;20197;-74
2023/05/11 00:22:41;;;;;;;8.07;3.70;;;;;;;8.93;84.79;94828.84;5131294;27;20197;-73
2023/05/11 00:25:09;;;;;;;4.55;2.25;;;;;;;8.94;84.94;94831.22;5131149;27;20196;-73
2023/05/11 00:27:37;;;;;;;4.05;2.78;;;;;;;8.86;85.23;94834.69;5131593;27;20201;-73
2023/05/11 00:30:05;;;;;;;3.63;2.83;;;;;;;8.88;85.25;94827.84;5131530;27;20332;-73
2023/05/11 00:32:31;;;;;;;3.08;2.45;;;;;;;8.87;85.36;94820.88;5131747;27;20274;-74
2023/05/11 00:34:58;;;;;;;4.63;3.63;;;;;;;8.83;85.86;94827.22;5131405;27;20250;-74
2023/05/11 00:37:25;;;;;;;7.07;5.10;;;;;;;8.81;85.85;94822.13;5131650;27;20612;-74
2023/05/11 00:39:51;;;;;;;6.00;3.65;;;;;;;8.83;86.03;94827.22;5131467;27;20269;-73
2023/05/11 00:42:18;;;;;;;6.70;3.72;;;;;;;8.82;85.96;94833.72;5144814;27;20264;-74
2023/05/11 00:44:46;;;;;;;3.60;2.65;;;;;;;8.77;86.23;94829.25;5130613;27;20656;-73
2023/05/11 00:47:13;;;;;;;4.32;2.53;;;;;;;8.77;86.25;94831.16;5131035;27;20200;-73
2023/05/11 00:49:40;;;;;;;5.75;3.70;;;;;;;8.71;86.19;94832.41;5131172;27;20242;-72
2023/05/11 00:52:07;;;;;;;5.68;3.50;;;;;;;8.74;86.47;94831.78;5131125;27;20201;-73
2023/05/11 00:54:35;;;;;;;5.57;3.75;;;;;;;8.69;86.63;94840.00;5131118;27;20193;-73
2023/05/11 00:57:03;;;;;;;5.15;3.40;;;;;;;8.70;86.46;94842.41;5131041;27;21006;-72
2023/05/11 00:59:30;;;;;;;4.97;3.03;;;;;;;8.70;86.73;94847.00;5130693;27;20730;-74
2023/05/11 01:01:58;;;;;;;4.90;3.42;;;;;;;8.67;86.89;94836.81;5130290;27;20200;-73
2023/05/11 01:04:25;;;;;;;5.43;3.97;;;;;;;8.65;86.85;94823.63;5130667;27;20602;-72
2023/05/11 01:06:58;;;;;;;9.18;3.72;;;;;;;8.69;87.04;94834.63;5130586;27;20197;-73
2023/05/11 01:09:35;;;;;;;3.67;2.92;;;;;;;8.69;86.80;94845.41;5131009;27;20233;-74
2023/05/11 01:12:13;;;;;;;5.93;3.40;;;;;;;8.61;86.97;94833.44;5117049;27;20192;-72
2023/05/11 01:14:46;;;;;;;6.43;4.32;;;;;;;8.59;87.30;94838.38;5131144;27;20242;-76
2023/05/11 01:17:23;;;;;;;5.88;4.03;;;;;;;8.58;87.27;94838.69;5130643;27;20957;-75
2023/05/11 01:19:56;;;;;;;8.07;4.80;;;;;;;8.55;87.08;94840.91;5130517;27;20193;-73
2023/05/11 01:22:37;;;;;;;4.95;3.85;;;;;;;8.54;86.95;94836.59;5131172;27;20203;-73
2023/05/11 01:25:21;;;;;;;3.47;2.78;;;;;;;8.51;86.87;94837.22;5117353;27;20712;-74
2023/05/11 01:28:15;;;;;;;5.70;3.80;;;;;;;8.49;87.13;94828.63;5130733;27;20205;-73
2023/05/11 01:30:49;;;;;;;5.30;3.53;;;;;;;8.46;86.96;94837.38;5131104;27;20605;-73
2023/05/11 01:33:18;;;;;;;4.68;3.40;;;;;;;8.48;87.14;94834.31;5118024;27;20714;-73
2023/05/11 01:35:50;;;;;;;4.43;3.30;;;;;;;8.47;86.89;94844.31;5130506;27;20626;-75
2023/05/11 01:38:21;;;;;;;11.95;3.45;;;;;;;8.53;86.72;94832.31;5130723;27;20204;-73
2023/05/11 01:40:54;;;;;;;5.70;3.88;;;;;;;8.51;86.75;94837.22;5130277;27;20209;-74
2023/05/11 01:43:23;;;;;;;4.97;4.13;;;;;;;8.56;86.01;94830.91;5129664;27;20640;-73
2023/05/11 01:45:54;;;;;;;7.40;4.72;;;;;;;8.55;86.29;94832.00;5129677;27;20208;-73
2023/05/11 01:48:24;;;;;;;5.20;4.05;;;;;;;8.53;85.78;94826.91;5129922;27;20604;-74
2023/05/11 01:50:52;;;;;;;5.75;4.22;;;;;;;8.52;85.83;94840.72;5123836;27;20263;-73
2023/05/11 01:53:20;;;;;;;5.40;4.28;;;;;;;8.50;85.69;94832.91;5122669;27;20238;-73
2023/05/11 01:55:49;;;;;;;7.38;4.32;;;;;;;8.52;85.53;94835.31;5129840;27;20583;-73
2023/05/11 01:58:17;;;;;;;6.22;4.00;;;;;;;8.51;85.40;94834.50;5130463;27;20246;-72
2023/05/11 02:00:45;;;;;;;8.73;4.10;;;;;;;8.53;84.96;94840.41;5116022;28;20209;-73
2023/05/11 02:03:15;;;;;;;6.85;4.68;;;;;;;8.51;85.16;94839.91;5130151;28;20208;-73
2023/05/11 02:05:44;;;;;;;8.38;5.95;;;;;;;8.52;84.90;94830.72;5130079;28;20632;-73
2023/05/11 02:08:12;;;;;;;6.88;3.85;;;;;;;8.58;84.53;94830.59;5144260;27;20200;-73
2023/05/11 02:10:41;;;;;;;4.13;3.47;;;;;;;8.61;83.88;94832.69;5130219;28;20720;-72
2023/05/11 02:13:10;;;;;;;7.90;3.92;;;;;;;8.54;84.05;94823.09;5130060;28;20636;-73
2023/05/11 02:15:40;;;;;;;11.70;3.92;;;;;;;8.58;83.79;94822.50;5129868;28;20257;-73
2023/05/11 02:18:10;;;;;;;5.75;4.38;;;;;;;8.55;83.75;94827.41;5129698;28;20217;-73
2023/05/11 02:20:41;;;;;;;5.18;4.38;;;;;;;8.54;83.41;94828.50;5132386;27;20545;-73
2023/05/11 02:23:10;;;;;;;3.97;2.97;;;;;;;8.56;83.09;94836.28;5134172;27;20203;-72
2023/05/11 02:25:37;;;;;;;4.38;3.15;;;;;;;8.52;83.36;94833.41;5133779;27;20204;-73
2023/05/11 02:28:04;;;;;;;6.72;4.72;;;;;;;8.48;83.43;94831.63;5133801;27;20208;-72
2023/05/11 02:30:32;;;;;;;10.68;3.97;;;;;;;8.43;83.18;94813.69;5133861;27;20201;-72
2023/05/11 02:33:05;;;;;;;5.68;4.35;;;;;;;8.48;83.34;94829.72;5133944;27;20236;-72
2023/05/11 02:35:38;;;;;;;4.95;3.10;;;;;;;8.45;83.08;94830.38;5133939;27;20785;-73
2023/05/11 02:38:09;;;;;;;7.13;4.95;;;;;;;8.41;83.44;94823.19;5120831;27;20216;-73
2023/05/11 02:40:42;;;;;;;10.55;4.60;;;;;;;8.38;83.53;94821.91;5133388;27;20185;-72
2023/05/11 02:43:12;;;;;;;7.45;4.20;;;;;;;8.32;83.86;94825.84;5133551;27;20659;-73
2023/05/11 02:45:42;;;;;;;9.38;5.53;;;;;;;8.25;83.70;94822.72;5133471;27;20254;-73
2023/05/11 02:48:14;;;;;;;6.90;4.40;;;;;;;8.26;83.84;94837.03;5133842;27;20246;-72
2023/05/11 02:50:43;;;;;;;5.78;4.15;;;;;;;8.21;84.12;94832.53;5128818;27;20682;-71
2023/05/11 02:53:15;;;;;;;3.75;3.20;;;;;;;8.21;84.02;94824.44;5125060;27;20270;-72
2023/05/11 02:55:42;;;;;;;4.82;3.22;;;;;;;8.16;84.16;94827.28;5133744;27;20611;-72
2023/05/11 02:58:09;;;;;;;12.45;6.57;;;;;;;8.13;84.27;94814.41;5133799;27;20240;-72
2023/05/11 03:00:36;;;;;;;4.28;3.35;;;;;;;8.17;84.23;94826.19;5133375;27;20200;-73
2023/05/11 03:03:03;;;;;;;5.00;3.75;;;;;;;8.17;84.22;94823.47;5133498;27;20205;-73
2023/05/11 03:05:32;;;;;;;7.53;4.28;;;;;;;8.12;84.40;94826.28;5147274;27;20659;-73
2023/05/11 03:08:00;;;;;;;8.10;4.03;;;;;;;8.09;84.37;94821.50;5133237;27;20262;-72
2023/05/11 03:10:28;;;;;;;4.18;2.95;;;;;;;8.05;84.67;94823.25;5119137;27;20693;-72
2023/05/11 03:12:55;;;;;;;3.72;3.17;;;;;;;8.06;84.66;94814.06;5133082;27;20284;-72
2023/05/11 03:15:23;;;;;;;4.40;3.78;;;;;;;8.07;84.78;94818.31;5146354;27;20205;-72
2023/05/11 03:17:51;;;;;;;5.43;3.85;;;;;;;8.03;85.01;94817.34;5132873;27;20866;-72
2023/05/11 03:20:20;;;;;;;5.18;3.20;;;;;;;8.03;85.28;94818.16;5133828;27;20197;-72
2023/05/11 03:22:49;;;;;;;5.65;3.65;;;;;;;8.00;85.07;94831.44;5133400;27;20208;-72
2023/05/11 03:25:17;;;;;;;7.85;4.35;;;;;;;8.00;85.67;94820.66;5133441;27;20205;-72
2023/05/11 03:27:46;;;;;;;7.45;3.92;;;;;;;7.98;85.66;94823.66;5133272;27;20201;-73
2023/05/11 03:30:15;;;;;;;7.38;4.57;;;;;;;7.98;85.85;94826.34;5132599;27;20201;-73
2023/05/11 03:32:42;;;;;;;4.53;3.33;;;;;;;7.99;85.83;94824.47;5131629;27;20212;-73
2023/05/11 03:35:09;;;;;;;4.63;4.03;;;;;;;7.99;86.05;94827.94;5133097;27;20610;-73
2023/05/11 03:37:37;;;;;;;5.30;3.28;;;;;;;7.99;85.84;94832.53;5146913;27;20430;-72
2023/05/11 03:40:06;;;;;;;5.60;4.22;;;;;;;7.98;85.82;94823.66;5142767;27;20200;-72
2023/05/11 03:42:34;;;;;;;5.43;4.03;;;;;;;7.99;85.82;94843.34;5135610;27;20205;-72
2023/05/11 03:45:04;;;;;;;6.65;4.70;;;;;;;7.93;85.98;94834.56;5132361;27;20201;-73
2023/05/11 03:47:33;;;;;;;5.30;3.92;;;;;;;7.97;85.69;94835.53;5132289;27;20621;-79
2023/05/11 03:50:01;;;;;;;9.93;6.18;;;;;;;7.99;85.77;94833.34;5132474;27;20253;-73
2023/05/11 03:52:29;;;;;;;7.47;4.72;;;;;;;7.99;85.91;94832.53;5132548;27;20197;-73
2023/05/11 03:54:56;;;;;;;5.60;3.78;;;;;;;8.04;86.05;94840.53;5132224;27;20208;-73
2023/05/11 03:57:25;;;;;;;7.70;4.93;;;;;;;8.01;85.79;94838.44;5132466;27;20233;-72
2023/05/11 03:59:52;;;;;;;6.13;4.00;;;;;;;8.05;85.71;94836.72;5131994;27;20190;-72
2023/05/11 04:02:23;;;;;;;8.73;5.03;;;;;;;8.04;85.80;94843.22;5132157;27;20242;-72
2023/05/11 04:04:51;;;;;;;9.18;6.10;;;;;;;8.06;85.94;94832.94;5132443;27;20197;-72
2023/05/11 04:07:17;;;;;;;9.52;3.80;;;;;;;8.10;85.31;94833.91;5131840;27;20197;-73
2023/05/11 04:09:44;;;;;;;7.40;4.20;;;;;;;8.09;85.90;94837.69;5132279;27;20213;-75
2023/05/11 04:12:11;;;;;;;13.48;6.30;;;;;;;8.07;85.80;94846.09;5132259;27;20540;-73
2023/05/11 04:14:38;;;;;;;9.52;5.88;;;;;;;8.09;86.40;94848.47;5145855;27;20718;-73
2023/05/11 04:17:04;;;;;;;6.43;4.47;;;;;;;8.07;86.26;94842.59;5131321;27;20284;-72
2023/05/11 04:19:33;;;;;;;7.85;4.07;;;;;;;8.05;86.01;94844.81;5132144;27;20269;-73
2023/05/11 04:21:59;;;;;;;8.45;5.20;;;;;;;8.03;86.36;94855.91;5131802;27;20205;-73
2023/05/11 04:24:26;;;;;;;6.68;4.10;;;;;;;8.07;86.34;94856.88;5131647;27;20254;-74
2023/05/11 04:26:56;;;;;;;7.45;4.30;;;;;;;8.10;86.83;94850.09;5131265;27;20201;-74
2023/05/11 04:29:23;;;;;;;7.90;4.88;;;;;;;8.14;86.51;94856.47;5131155;27;20200;-74
2023/05/11 04:31:50;;;;;;;8.68;5.97;;;;;;;8.08;86.65;94863.06;5131315;27;20245;-73
2023/05/11 04:34:16;;;;;;;9.23;6.55;;;;;;;8.05;87.10;94863.72;5144140;27;20243;-73
2023/05/11 04:36:47;;;;;;;6.65;4.38;;;;;;;8.05;87.10;94863.72;5131044;27;20220;-73
2023/05/11 04:39:14;;;;;;;8.25;3.70;;;;;;;8.15;87.06;94868.88;5130435;27;20196;-74
2023/05/11 04:41:41;;;;;;;11.70;6.50;;;;;;;8.18;87.06;94862.84;5131949;27;20216;-73
2023/05/11 04:44:08;;;;;;;7.40;4.88;;;;;;;8.17;86.98;94863.97;5131253;27;20193;-73
2023/05/11 04:46:35;;;;;;;7.05;4.82;;;;;;;8.12;87.21;94862.16;5131642;27;20205;-73
2023/05/11 04:49:03;;;;;;;6.45;4.50;;;;;;;8.08;87.54;94869.28;5131195;27;20208;-73
2023/05/11 04:51:29;;;;;;;7.03;4.55;;;;;;;8.06;87.73;94866.06;5131018;27;20557;-73
2023/05/11 04:53:57;;;;;;;14.93;5.78;;;;;;;8.01;88.09;94868.91;5131234;27;20224;-73
2023/05/11 04:56:25;;;;;;;10.38;6.05;;;;;;;8.00;88.63;94872.72;5131114;27;20197;-73
2023/05/11 04:58:52;;;;;;;8.93;5.53;;;;;;;8.00;88.64;94867.31;5130947;27;20651;-74
2023/05/11 05:01:18;;;;;;;11.48;7.05;;;;;;;8.05;88.80;94869.09;5130740;27;20246;-74
2023/05/11 05:03:49;;;;;;;5.82;3.60;;;;;;;8.08;89.07;94868.47;5136437;27;20200;-75
2023/05/11 05:06:16;;;;;;;10.32;5.57;;;;;;;8.08;88.91;94879.25;5138494;27;20204;-72
2023/05/11 05:08:42;;;;;;;8.85;5.10;;;;;;;8.04;88.96;94884.50;5130697;27;20676;-74
2023/05/11 05:11:11;;;;;;;8.65;5.07;;;;;;;8.05;89.36;94879.91;5130705;27;20193;-74
2023/05/11 05:13:37;;;;;;;10.15;5.53;;;;;;;8.02;90.00;94889.38;5130695;27;20253;-73
2023/05/11 05:16:05;;;;;;;6.25;4.85;;;;;;;8.04;90.05;94897.19;5130313;27;20201;-73
2023/05/11 05:18:31;;;;;;;13.27;7.25;;;;;;;8.02;90.55;94891.28;5144238;27;20645;-73
2023/05/11 05:20:58;;;;;;;15.40;7.75;;;;;;;8.02;90.60;94896.69;5130515;27;20707;-73
2023/05/11 05:23:25;;;;;;;14.27;8.10;;;;;;;8.02;91.06;94891.28;5117169;27;20609;-73
2023/05/11 05:25:52;;;;;;;12.18;6.55;;;;;;;8.00;90.66;94891.59;5130633;27;20564;-73
2023/05/11 05:28:20;;;;;;;11.57;6.15;;;;;;;8.02;91.17;94902.09;5130563;27;20647;-74
2023/05/11 05:30:47;;;;;;;12.63;7.75;;;;;;;8.06;90.83;94897.69;5130683;27;20208;-73
2023/05/11 05:33:13;;;;;;;19.33;9.20;;;;;;;8.07;91.37;94893.84;5130648;27;20229;-75
2023/05/11 05:35:41;;;;;;;8.90;5.68;;;;;;;8.02;90.98;94892.09;5130691;27;20664;-73
2023/05/11 05:38:08;;;;;;;12.60;6.53;;;;;;;8.02;90.64;94902.09;5130717;27;20319;-73
2023/05/11 05:40:36;;;;;;;10.90;6.70;;;;;;;8.03;90.40;94887.50;5130469;27;20596;-75
2023/05/11 05:43:05;;;;;;;11.10;6.78;;;;;;;8.04;90.21;94919.56;5130419;27;20216;-72
2023/05/11 05:45:35;;;;;;;9.32;5.70;;;;;;;8.12;89.88;94893.75;5130631;27;20290;-73
2023/05/11 05:48:01;;;;;;;10.88;5.93;;;;;;;8.21;89.30;94900.81;5139731;27;20204;-74
2023/05/11 05:50:28;;;;;;;11.48;6.60;;;;;;;8.28;88.87;94897.69;5131623;27;20647;-73
2023/05/11 05:52:55;;;;;;;8.98;5.53;;;;;;;8.16;89.16;94906.34;5119084;27;20193;-75
2023/05/11 05:55:22;;;;;;;13.95;6.97;;;;;;;8.29;88.98;94907.38;5129160;27;20258;-74
2023/05/11 05:57:50;;;;;;;9.38;5.82;;;;;;;8.28;88.60;94910.38;5129813;27;20583;-73
2023/05/11 06:00:17;;;;;;;11.45;5.28;;;;;;;8.42;88.02;94906.56;5129759;28;20265;-74
2023/05/11 06:02:45;;;;;;;10.07;6.63;;;;;;;8.47;87.83;94909.13;5130546;28;20612;-73
2023/05/11 06:05:12;;;;;;;13.27;7.32;;;;;;;8.47;87.68;94909.13;5129933;28;20659;-74
2023/05/11 06:07:39;;;;;;;17.40;6.53;;;;;;;8.46;87.04;94912.94;5140505;27;20208;-74
2023/05/11 06:10:06;;;;;;;16.30;5.15;;;;;;;8.55;86.74;94911.09;5133356;27;20201;-73
2023/05/11 06:12:33;;;;;;;10.93;6.05;;;;;;;8.48;86.86;94916.13;5130246;28;20204;-74
2023/05/11 06:14:59;;;;;;;9.90;5.97;;;;;;;8.50;86.52;94922.00;5129891;28;20265;-80
2023/05/11 06:17:27;;;;;;;8.27;5.65;;;;;;;8.43;87.01;94918.94;5129952;28;20360;-74
2023/05/11 06:19:55;;;;;;;9.10;5.15;;;;;;;8.45;86.96;94927.56;5129668;28;20196;-73
2023/05/11 06:22:22;;;;;;;8.68;5.45;;;;;;;8.37;87.80;94920.16;5127300;28;20201;-73
2023/05/11 06:24:49;;;;;;;10.98;6.53;;;;;;;8.37;87.22;94939.06;5129797;28;20201;-72
2023/05/11 06:27:15;;;;;;;8.95;6.25;;;;;;;8.37;87.49;94928.25;5129375;28;20670;-74
2023/05/11 06:29:42;;;;;;;27.00;5.25;;;;;;;8.26;87.73;94943.06;5130113;28;20201;-73
2023/05/11 06:32:09;;;;;;;13.13;5.25;;;;;;;8.20;88.05;94938.88;5129595;28;20204;-72
2023/05/11 06:34:35;;;;;;;20.27;8.27;;;;;;;8.39;88.10;94928.75;5129315;28;20977;-72
2023/05/11 06:37:03;;;;;;;6.75;4.07;;;;;;;8.66;87.06;94927.03;5128872;28;20209;-73
2023/05/11 06:39:30;;;;;;;13.63;7.60;;;;;;;8.61;86.34;94935.28;5129412;28;20250;-73
2023/05/11 06:42:00;;;;;;;13.80;6.57;;;;;;;8.62;86.92;94944.94;5128764;28;20246;-73
2023/05/11 06:44:26;;;;;;;12.65;6.07;;;;;;;8.60;86.56;94929.09;5129372;28;20599;-74
2023/05/11 06:46:53;;;;;;;9.40;5.15;;;;;;;8.53;86.64;94934.91;5129057;28;20667;-74
2023/05/11 06:49:20;;;;;;;14.00;8.45;;;;;;;8.59;86.85;94938.28;5129329;28;20421;-72
2023/05/11 06:51:47;;;;;;;9.50;5.50;;;;;;;8.58;85.95;94935.88;5129739;28;20253;-73
2023/05/11 06:54:15;;;;;;;12.88;5.90;;;;;;;8.64;85.77;94934.66;5129281;28;20201;-74
2023/05/11 06:56:42;;;;;;;12.35;6.43;;;;;;;8.79;86.12;94926.16;5129184;28;20301;-74
2023/05/11 06:59:09;;;;;;;10.80;5.57;;;;;;;9.01;85.10;94928.84;5129013;28;20225;-72
2023/05/11 07:01:35;;;;;;;21.13;7.50;;;;;;;9.12;84.80;94935.59;5129424;28;20197;-82
2023/05/11 07:04:02;;;;;;;16.20;9.10;;;;;;;8.98;84.79;94929.47;5129275;28;20250;-82
2023/05/11 07:06:29;;;;;;;13.77;7.57;;;;;;;9.33;83.64;94929.63;5131547;27;20204;-73
2023/05/11 07:08:56;;;;;;;13.27;6.15;;;;;;;9.45;82.85;94943.34;5133383;27;20197;-73
2023/05/11 07:11:24;;;;;;;8.25;5.50;;;;;;;9.57;81.99;94924.63;5146946;27;20592;-71
2023/05/11 07:13:51;;;;;;;16.70;10.00;;;;;;;9.87;81.24;94922.94;5133721;27;20203;-74
2023/05/11 07:16:18;;;;;;;11.25;7.30;;;;;;;9.60;81.31;94938.31;5146500;27;20306;-73
2023/05/11 07:18:44;;;;;;;19.88;9.40;;;;;;;9.54;82.04;94936.88;5132838;27;20264;-73
2023/05/11 07:21:11;;;;;;;15.30;7.32;;;;;;;9.72;80.90;94926.88;5132283;27;20213;-73
2023/05/11 07:23:38;;;;;;;9.30;5.72;;;;;;;10.15;79.59;94934.28;5132896;27;20246;-74
2023/05/11 07:26:08;;;;;;;13.25;6.93;;;;;;;9.95;79.75;94935.72;5132544;27;20208;-73
2023/05/11 07:28:36;;;;;;;10.02;6.80;;;;;;;9.87;79.69;94934.56;5132732;27;20664;-73
2023/05/11 07:31:03;;;;;;;10.27;6.68;;;;;;;9.58;80.01;94934.31;5135251;27;20197;-73
2023/05/11 07:33:30;;;;;;;15.52;6.55;;;;;;;10.18;79.03;94944.50;5143540;27;20224;-73
2023/05/11 07:35:57;;;;;;;13.68;7.45;;;;;;;10.39;77.84;94940.06;5132707;27;20570;-73
2023/05/11 07:38:24;;;;;;;9.13;5.50;;;;;;;10.78;76.34;94935.59;5132786;27;20288;-73
2023/05/11 07:40:50;;;;;;;15.77;7.32;;;;;;;11.13;74.69;94933.63;5132713;27;20200;-73
2023/05/11 07:43:17;;;;;;;7.75;5.70;;;;;;;11.35;74.13;94934.19;5132528;27;20201;-73
2023/05/11 07:45:45;;;;;;;12.18;7.82;;;;;;;10.69;75.55;94930.97;5132451;27;20660;-72
2023/05/11 07:48:12;;;;;;;7.60;5.30;;;;;;;11.03;73.78;94943.69;5132545;27;20225;-72
2023/05/11 07:50:39;;;;;;;11.40;6.63;;;;;;;10.93;74.14;94954.09;5132206;27;20201;-72
2023/05/11 07:53:06;;;;;;;15.43;8.43;;;;;;;10.88;74.12;94937.97;5132278;27;20225;-73
2023/05/11 07:55:33;;;;;;;13.98;8.85;;;;;;;11.23;74.12;94938.69;5136904;27;20711;-73
2023/05/11 07:58:00;;;;;;;7.57;4.25;;;;;;;11.42;72.05;94927.47;5141062;27;20219;-73
2023/05/11 08:00:26;;;;;;;8.98;6.38;;;;;;;11.70;70.21;94939.47;5132268;27;20269;-73
2023/05/11 08:02:55;;;;;;;5.97;4.20;;;;;;;11.89;69.73;94934.44;5132562;27;20201;-73
2023/05/11 08:05:22;;;;;;;11.40;7.15;;;;;;;11.47;70.70;94930.81;5132299;27;20201;-73
2023/05/11 08:07:48;;;;;;;10.02;6.18;;;;;;;10.91;72.13;94923.78;5132366;27;20586;-74
2023/05/11 08:10:15;;;;;;;8.98;4.70;;;;;;;11.19;71.33;94919.56;5137131;27;20296;-73
2023/05/11 08:12:42;;;;;;;6.05;4.22;;;;;;;11.54;70.75;94935.72;5140597;27;20201;-74
2023/05/11 08:15:09;;;;;;;8.45;6.03;;;;;;;11.49;69.90;94938.59;5145525;27;20201;-74
2023/05/11 08:17:36;;;;;;;7.10;4.45;;;;;;;11.11;70.27;94933.13;5131263;27;20221;-73
2023/05/11 08:20:05;;;;;;;6.20;4.38;;;;;;;11.57;69.07;94935.06;5131683;27;20201;-74
2023/05/11 08:22:32;;;;;;;6.88;5.18;;;;;;;11.69;68.13;94932.44;5131524;27;20201;-74
2023/05/11 08:24:58;;;;;;;8.65;6.32;;;;;;;12.36;67.02;94928.88;5131183;27;20667;-74
2023/05/11 08:27:25;;;;;;;8.40;6.95;;;;;;;12.09;66.80;94939.13;5144239;27;20687;-76
2023/05/11 08:29:52;;;;;;;8.80;4.88;;;;;;;12.48;66.32;94926.22;5132878;27;20213;-72
2023/05/11 08:32:19;;;;;;;5.90;4.78;;;;;;;11.66;67.54;94947.47;5131484;27;20223;-73
2023/05/11 08:34:45;;;;;;;5.45;4.13;;;;;;;11.51;68.73;94941.78;5131560;27;20245;-72
2023/05/11 08:37:13;;;;;;;6.53;4.93;;;;;;;11.12;69.01;94940.94;5131619;27;20209;-73
2023/05/11 08:39:40;;;;;;;7.15;5.13;;;;;;;11.59;69.23;94935.53;5131536;27;20232;-73
2023/05/11 08:42:08;;;;;;;11.82;6.10;;;;;;;12.09;68.19;94930.97;5130954;27;20201;-73
2023/05/11 08:44:36;;;;;;;7.95;5.88;;;;;;;11.65;68.10;94931.50;5145391;27;20293;-74
2023/05/11 08:47:05;;;;;;;6.68;5.13;;;;;;;12.04;67.33;94928.44;5131404;27;20201;-73
2023/05/11 08:49:32;;;;;;;5.25;4.00;;;;;;;12.24;66.99;94926.09;5131665;27;20208;-75
2023/05/11 08:51:59;;;;;;;8.80;6.47;;;;;;;12.50;66.67;94923.97;5131358;27;20197;-73
2023/05/11 08:54:27;;;;;;;5.65;3.47;;;;;;;12.09;66.32;94925.53;5131405;27;20200;-73
2023/05/11 08:56:54;;;;;;;6.05;4.00;;;;;;;12.22;67.14;94918.25;5131043;27;20259;-73
2023/05/11 08:59:22;;;;;;;8.10;3.55;;;;;;;12.46;66.38;94923.03;5130733;27;20329;-74
2023/05/11 09:01:51;;;;;;;10.52;7.55;;;;;;;12.95;64.97;94912.38;5130800;27;20548;-73
2023/05/11 09:04:20;;;;;;;6.05;4.70;;;;;;;12.34;66.64;94909.38;5131126;27;20544;-73
2023/05/11 09:06:47;;;;;;;6.95;4.65;;;;;;;13.33;65.12;94912.16;5130978;27;20675;-73
2023/05/11 09:09:15;;;;;;;7.20;6.50;;;;;;;12.82;65.44;94915.06;5131173;27;20273;-73
2023/05/11 09:11:44;;;;;;;5.78;4.35;;;;;;;12.79;66.60;94910.28;5131282;27;20209;-72
2023/05/11 09:14:11;;;;;;;8.13;6.50;;;;;;;12.88;65.56;94906.69;5130900;27;20691;-74
2023/05/11 09:16:38;;;;;;;8.93;3.83;;;;;;;12.96;64.45;94908.53;5131017;27;20221;-73
2023/05/11 09:19:05;;;;;;;5.32;4.72;;;;;;;13.19;64.25;94907.03;5130929;27;20617;-76
2023/05/11 09:21:32;;;;;;;4.13;3.00;;;;;;;12.53;66.83;94923.31;5131085;27;20200;-73
2023/05/11 09:23:59;;;;;;;5.95;5.35;;;;;;;12.76;66.05;94924.53;5131016;27;20211;-72
2023/05/11 09:26:28;;;;;;;6.57;4.80;;;;;;;12.53;66.77;94901.56;5130947;27;20197;-73
2023/05/11 09:28:58;;;;;;;5.35;3.20;;;;;;;12.25;68.03;94911.38;5130229;27;20208;-74
2023/05/11 09:31:36;;;;;;;8.05;4.47;;;;;;;12.67;67.54;94901.28;5144165;27;20217;-73
2023/05/11 09:34:13;;;;;;;4.07;3.25;;;;;;;12.24;67.66;94916.03;5130245;27;20237;-74
2023/05/11 09:36:40;;;;;;;5.18;3.53;;;;;;;12.09;68.72;94925.53;5130637;27;20196;-72
2023/05/11 09:39:07;;;;;;;4.63;3.42;;;;;;;12.47;69.16;94921.91;5130282;27;20237;-73
2023/05/11 09:41:34;;;;;;;4.75;3.80;;;;;;;12.48;68.84;94909.91;5130286;27;20225;-80
2023/05/11 09:44:07;;;;;;;5.45;4.20;;;;;;;11.89;69.92;94926.28;5129867;27;20215;-74
2023/05/11 09:46:35;;;;;;;3.15;2.80;;;;;;;11.82;70.40;94934.16;5130155;27;20192;-74
2023/05/11 09:49:01;;;;;;;5.45;2.53;;;;;;;11.46;72.04;94922.97;5129750;27;20233;-74
2023/05/11 09:51:30;;;;;;;4.85;3.45;;;;;;;12.20;70.17;94919.72;5129757;27;20224;-75
2023/05/11 09:53:58;;;;;;;7.47;4.43;;;;;;;12.32;69.15;94907.00;5134210;27;20249;-73
2023/05/11 09:56:43;;;;;;;7.55;4.28;;;;;;;12.02;69.30;94913.63;5138981;27;20205;-74
2023/05/11 09:59:12;;;;;;;4.50;3.38;;;;;;;11.82;70.40;94914.38;5121551;27;20213;-77
2023/05/11 10:01:40;;;;;;;4.80;3.45;;;;;;;11.63;71.73;94912.84;5129937;27;20205;-75
2023/05/11 10:04:08;;;;;;;7.47;3.60;;;;;;;11.90;70.69;94906.16;5130328;27;20222;-73
2023/05/11 10:06:48;;;;;;;8.18;3.05;;;;;;;12.09;70.18;94898.38;5130422;27;20312;-73
2023/05/11 10:09:18;;;;;;;6.60;3.88;;;;;;;11.88;71.03;94913.88;5130461;28;20196;-74
2023/05/11 10:11:46;;;;;;;4.88;3.25;;;;;;;12.25;69.81;94885.00;5130775;28;20228;-76
2023/05/11 10:14:16;;;;;;;7.57;3.92;;;;;;;12.84;68.29;94884.03;5130226;28;20201;-73
2023/05/11 10:16:43;;;;;;;4.68;3.65;;;;;;;12.98;68.29;94879.88;5130225;28;20731;-73
2023/05/11 10:19:11;;;;;;;5.93;4.35;;;;;;;13.23;66.60;94875.31;5130169;28;20273;-73
2023/05/11 10:21:39;;;;;;;6.80;3.55;;;;;;;13.04;66.96;94878.50;5130428;28;20252;-74
2023/05/11 10:24:06;;;;;;;3.97;3.15;;;;;;;13.01;67.36;94883.81;5130023;28;20288;-74
2023/05/11 10:26:34;;;;;;;8.18;5.47;;;;;;;12.90;67.94;94882.66;5130238;28;20197;-74
2023/05/11 10:29:01;;;;;;;4.05;2.80;;;;;;;12.97;66.49;94882.94;5130145;28;20197;-72
2023/05/11 10:31:30;;;;;;;4.20;2.55;;;;;;;12.74;67.23;94875.16;5129950;28;20285;-77
2023/05/11 10:33:57;;;;;;;6.38;4.30;;;;;;;12.48;67.30;94871.06;5129677;28;20229;-74
2023/05/11 10:36:24;;;;;;;7.05;3.60;;;;;;;12.77;66.04;94863.59;5116203;28;20726;-73
2023/05/11 10:38:51;;;;;;;2.63;2.30;;;;;;;12.55;66.15;94855.03;5129835;28;20336;-77
2023/05/11 10:41:32;;;;;;;6.38;4.07;;;;;;;12.59;67.51;94854.03;5131411;27;20201;-73
2023/05/11 10:44:25;;;;;;;5.22;3.17;;;;;;;12.92;67.40;94864.09;5133584;27;20752;-74
2023/05/11 10:47:12;;;;;;;5.65;3.22;;;;;;;13.27;67.14;94857.16;5133850;27;20271;-73
2023/05/11 10:49:56;;;;;;;4.15;3.28;;;;;;;13.47;65.19;94869.88;5122260;27;20208;-73
2023/05/11 10:52:42;;;;;;;4.55;3.80;;;;;;;13.97;64.77;94855.09;5133093;27;20225;-73
2023/05/11 10:55:18;;;;;;;4.88;3.35;;;;;;;13.91;64.22;94852.97;5133625;27;20197;-73
2023/05/11 10:58:01;;;;;;;6.60;4.65;;;;;;;13.74;64.20;94862.16;5133444;27;20724;-75
2023/05/11 11:01:10;;;;;;;7.63;4.28;;;;;;;13.50;64.86;94871.94;5133191;27;20265;-74
2023/05/11 11:03:38;;;;;;;5.18;3.30;;;;;;;13.37;64.67;94862.16;5133567;27;20670;-73
2023/05/11 11:06:05;;;;;;;4.45;3.80;;;;;;;13.58;64.22;94863.97;5133464;27;20213;-74
2023/05/11 11:08:56;;;;;;;2.83;2.15;;;;;;;13.79;64.09;94860.00;5133588;27;20232;-74
2023/05/11 11:11:33;;;;;;;6.32;3.30;;;;;;;14.27;63.97;94852.06;5133394;27;20280;-74
2023/05/11 11:14:04;;;;;;;3.45;2.60;;;;;;;13.36;64.35;94857.88;5133321;27;20242;-73
2023/05/11 11:16:34;;;;;;;5.32;2.38;;;;;;;13.67;64.35;94862.72;5133136;27;20660;-73
2023/05/11 11:19:39;;;;;;;6.47;4.35;;;;;;;13.99;63.12;94847.38;5133537;27;20229;-73
2023/05/11 11:22:26;;;;;;;5.82;4.80;;;;;;;14.81;61.88;94847.00;5121582;27;20205;-73
2023/05/11 11:24:53;;;;;;;7.05;4.22;;;;;;;14.88;60.80;94839.81;5132895;27;20226;-74
2023/05/11 11:27:56;;;;;;;6.28;2.95;;;;;;;14.86;61.13;94844.84;5132875;27;20200;-74
2023/05/11 11:30:24;;;;;;;5.05;3.88;;;;;;;14.27;61.45;94830.28;5123044;27;20235;-75
2023/05/11 11:32:52;;;;;;;5.47;3.97;;;;;;;13.80;63.95;94845.25;5132312;27;20667;-73
2023/05/11 11:35:51;;;;;;;8.23;3.17;;;;;;;13.42;64.22;94851.03;5133325;27;20205;-73
2023/05/11 11:38:20;;;;;;;4.97;3.95;;;;;;;13.23;65.22;94848.09;5121569;27;20185;-75
2023/05/11 11:40:51;;;;;;;5.10;2.53;;;;;;;13.16;65.70;94837.75;5132767;27;20710;-73
2023/05/11 11:43:19;;;;;;;7.50;3.00;;;;;;;13.48;64.63;94844.25;5132590;27;20634;-74
2023/05/11 11:45:56;;;;;;;2.50;1.90;;;;;;;13.51;64.46;94849.03;5132620;27;20201;-74